Singapore Star — 3EJX5 — position and weather

sailwx.info

Track history (hours):
 
Tides and Currents Weather Stations Pressure Air Temp Water Temp Dewpoint Dewpoint Depression Visibility Wind Speed Wind Dir Waves Ship Positions

Singapore Star

Last reported at 2017-Nov-16 22:07 UTC. Time now 2017-Nov-18 02:51 UTC.
Position N 31°48' W 080°17'.

Length 183 m; draft 8 m.

Type: Ship. MMSI: 372639000.

Date/timePositionNaut miles runAvg speedWind from/ knotsBaromVisibWave heightAir tempDewpointWater temp
2017-Nov-16 22:07N 31°48' W 080°17'3 9.4
2017-Nov-16 21:48N 31°48' W 080°21'3 9.4
2017-Nov-16 21:30N 31°49' W 080°24'5 9.3
2017-Nov-16 21:00N 31°51' W 080°29'5 9.2
2017-Nov-16 20:30N 31°53' W 080°34'5 9.2
2017-Nov-16 20:00N 31°55' W 080°39'5 9.5
2017-Nov-16 19:30N 31°58' W 080°43'612.1
2017-Nov-16 19:00N 32°01' W 080°49'611.8
2017-Nov-16 18:30N 32°03' W 080°56'611.4
2017-Nov-16 18:00N 32°06' W 081°01'4 7.7
2017-Nov-16 17:30N 32°05' W 081°05'2 4.1
2017-Nov-16 17:00N 32°06' W 081°07'1 2.0
2017-Nov-16 16:30N 32°06' W 081°06'0 0.0
2017-Nov-16 16:00N 32°06' W 081°06'0 0.0
2017-Nov-16 15:30N 32°06' W 081°06'0 0.0
2017-Nov-16 15:00N 32°06' W 081°06'0 0.0
2017-Nov-16 14:30N 32°06' W 081°06'0 0.0
2017-Nov-16 14:00N 32°06' W 081°06'0 0.0
2017-Nov-16 13:23N 32°06' W 081°06'0 0.0
2017-Nov-16 13:00N 32°06' W 081°06'0 0.0
2017-Nov-16 12:30N 32°06' W 081°06'0 0.0
2017-Nov-16 11:53N 32°06' W 081°06'0 0.0
2017-Nov-16 11:23N 32°06' W 081°06'0 0.0
2017-Nov-16 10:59N 32°06' W 081°06'0 0.0
2017-Nov-16 10:24N 32°06' W 081°06'0 0.0
2017-Nov-16 09:59N 32°06' W 081°06'0 0.0
2017-Nov-16 09:24N 32°06' W 081°06'0 0.0
2017-Nov-16 09:00N 32°06' W 081°06'0 0.0
2017-Nov-16 08:29N 32°06' W 081°06'0 0.0
2017-Nov-16 07:59N 32°06' W 081°06'0 0.0
2017-Nov-16 07:29N 32°06' W 081°06'0 0.0
2017-Nov-16 06:59N 32°06' W 081°06'0 0.0
2017-Nov-16 06:29N 32°06' W 081°06'0 0.0
2017-Nov-16 05:53N 32°06' W 081°06'0 0.0
2017-Nov-16 05:30N 32°06' W 081°06'0 0.0
2017-Nov-16 05:00N 32°06' W 081°06'2 4.0
2017-Nov-16 04:30N 32°05' W 081°04'4 7.2
2017-Nov-16 04:00N 32°06' W 081°00'4 8.8
2017-Nov-16 03:30N 32°03' W 080°56'4 8.8
2017-Nov-16 03:00N 32°02' W 080°51'5 9.9
2017-Nov-16 02:30N 31°59' W 080°46'510.3
2017-Nov-16 02:00N 31°57' W 080°41'4 7.2
2017-Nov-16 01:30N 31°54' W 080°39'510.2
2017-Nov-16 01:00N 31°49' W 080°36'5 9.9
2017-Nov-16 00:30N 31°46' W 080°32'  
2017-Nov-12 21:54N 26°15' W 079°24'512.1
2017-Nov-12 21:30N 26°11' W 079°26'3212.8
2017-Nov-12 19:02N 25°39' W 079°31'013.0
2017-Nov-12 19:00N 25°39' W 079°31'  
Track history (hours):
 
Tides and Currents Weather Stations Pressure Air Temp Water Temp Dewpoint Dewpoint Depression Visibility Wind Speed Wind Dir Waves Ship Positions

Singapore Star

Last reported at 2017-Nov-16 22:07 UTC. Time now 2017-Nov-18 02:51 UTC.
Position N 31°48' W 080°17'.

Length 183 m; draft 8 m.

Type: Ship. MMSI: 372639000.

Date/timePositionNaut miles runAvg speedWind from/ knotsBaromVisibWave heightAir tempDewpointWater temp
2017-Nov-16 22:07N 31°48' W 080°17'3 9.4
2017-Nov-16 21:48N 31°48' W 080°21'3 9.4
2017-Nov-16 21:30N 31°49' W 080°24'5 9.3
2017-Nov-16 21:00N 31°51' W 080°29'5 9.2
2017-Nov-16 20:30N 31°53' W 080°34'5 9.2
2017-Nov-16 20:00N 31°55' W 080°39'5 9.5
2017-Nov-16 19:30N 31°58' W 080°43'612.1
2017-Nov-16 19:00N 32°01' W 080°49'611.8
2017-Nov-16 18:30N 32°03' W 080°56'611.4
2017-Nov-16 18:00N 32°06' W 081°01'4 7.7
2017-Nov-16 17:30N 32°05' W 081°05'2 4.1
2017-Nov-16 17:00N 32°06' W 081°07'1 2.0
2017-Nov-16 16:30N 32°06' W 081°06'0 0.0
2017-Nov-16 16:00N 32°06' W 081°06'0 0.0
2017-Nov-16 15:30N 32°06' W 081°06'0 0.0
2017-Nov-16 15:00N 32°06' W 081°06'0 0.0
2017-Nov-16 14:30N 32°06' W 081°06'0 0.0
2017-Nov-16 14:00N 32°06' W 081°06'0 0.0
2017-Nov-16 13:23N 32°06' W 081°06'0 0.0
2017-Nov-16 13:00N 32°06' W 081°06'0 0.0
2017-Nov-16 12:30N 32°06' W 081°06'0 0.0
2017-Nov-16 11:53N 32°06' W 081°06'0 0.0
2017-Nov-16 11:23N 32°06' W 081°06'0 0.0
2017-Nov-16 10:59N 32°06' W 081°06'0 0.0
2017-Nov-16 10:24N 32°06' W 081°06'0 0.0
2017-Nov-16 09:59N 32°06' W 081°06'0 0.0
2017-Nov-16 09:24N 32°06' W 081°06'0 0.0
2017-Nov-16 09:00N 32°06' W 081°06'0 0.0
2017-Nov-16 08:29N 32°06' W 081°06'0 0.0
2017-Nov-16 07:59N 32°06' W 081°06'0 0.0
2017-Nov-16 07:29N 32°06' W 081°06'0 0.0
2017-Nov-16 06:59N 32°06' W 081°06'0 0.0
2017-Nov-16 06:29N 32°06' W 081°06'0 0.0
2017-Nov-16 05:53N 32°06' W 081°06'0 0.0
2017-Nov-16 05:30N 32°06' W 081°06'0 0.0
2017-Nov-16 05:00N 32°06' W 081°06'2 4.0
2017-Nov-16 04:30N 32°05' W 081°04'4 7.2
2017-Nov-16 04:00N 32°06' W 081°00'4 8.8
2017-Nov-16 03:30N 32°03' W 080°56'4 8.8
2017-Nov-16 03:00N 32°02' W 080°51'5 9.9
2017-Nov-16 02:30N 31°59' W 080°46'510.3
2017-Nov-16 02:00N 31°57' W 080°41'4 7.2
2017-Nov-16 01:30N 31°54' W 080°39'510.2
2017-Nov-16 01:00N 31°49' W 080°36'5 9.9
2017-Nov-16 00:30N 31°46' W 080°32'  
2017-Nov-12 21:54N 26°15' W 079°24'512.1
2017-Nov-12 21:30N 26°11' W 079°26'3212.8
2017-Nov-12 19:02N 25°39' W 079°31'013.0
2017-Nov-12 19:00N 25°39' W 079°31'  

Dump ship's entire track history